CDT,Max TemperatureF,Mean TemperatureF,Min TemperatureF,Max Dew PointF,MeanDew PointF,Min DewpointF,Max Humidity, Mean Humidity, Min Humidity, Max Sea Level PressureIn, Mean Sea Level PressureIn, Min Sea Level PressureIn, Max VisibilityMiles, Mean VisibilityMiles, Min VisibilityMiles, Max Wind SpeedMPH, Mean Wind SpeedMPH, Max Gust SpeedMPH,PrecipitationIn, CloudCover, Events, WindDirDegrees
2013-7-1,73,66,59,59,56,51,87,71,50,30.32,30.25,30.15,10,10,7,18,6,22,0.00,4,,32
2013-7-2,81,66,50,55,50,47,94,58,30,30.34,30.28,30.19,10,10,7,13,4,20,0.00,2,,93
2013-7-3,83,74,65,49,46,41,50,38,28,30.28,30.20,30.11,10,10,10,12,4,16,0.00,5,,163
2013-7-4,91,78,65,48,46,41,49,35,20,30.15,30.11,30.03,10,10,10,17,10,24,0.00,1,,201
2013-7-5,93,80,67,54,50,47,52,38,21,30.13,30.07,30.00,10,10,7,16,7,21,0.00,1,,183
2013-7-6,95,82,70,52,51,49,50,37,22,30.10,30.06,29.99,10,10,10,18,9,26,0.00,1,,179
2013-7-7,91,78,65,57,51,46,58,39,21,30.17,30.11,30.07,10,10,10,16,7,23,0.00,0,,147
2013-7-8,90,78,68,61,58,54,70,52,30,30.26,30.20,30.16,10,10,7,21,6,28,0.00,1,,141
2013-7-9,90,78,66,61,59,56,79,57,32,30.29,30.24,30.17,10,10,10,15,7,22,0.00,2,Thunderstorm,165
2013-7-10,91,80,68,61,58,53,75,50,28,30.29,30.22,30.14,10,10,10,14,8,23,0.00,1,,173
2013-7-11,94,80,68,57,55,50,65,44,24,30.22,30.17,30.10,10,10,7,15,5,22,0.00,2,,168
2013-7-12,94,79,65,58,53,48,73,44,21,30.17,30.13,30.07,10,10,7,18,6,25,0.00,1,,141
2013-7-13,92,77,63,54,50,46,63,37,21,30.22,30.17,30.11,10,10,10,16,5,22,0.00,0,,145
2013-7-14,94,78,63,51,44,37,58,30,14,30.19,30.11,30.00,10,10,10,12,5,17,0.00,0,,167
2013-7-15,79,68,59,62,57,47,99,80,33,30.25,30.15,30.02,10,9,2,22,8,29,0.03,6,,34
2013-7-16,64,61,59,61,59,58,97,93,84,30.32,30.26,30.20,10,8,3,12,4,16,0.06,8,,31
2013-7-17,73,66,61,64,62,60,100,88,71,30.34,30.31,30.28,10,8,2,14,4,24,0.64,8,,92
2013-7-18,73,68,64,64,62,61,97,83,68,30.32,30.28,30.22,10,10,3,15,6,17,0.03,7,,105
2013-7-19,80,72,63,63,62,60,93,76,52,30.26,30.21,30.14,10,10,10,14,4,18,0.00,4,Thunderstorm,133
2013-7-20,78,72,66,64,61,57,91,72,54,30.19,30.14,30.08,10,10,10,14,5,20,0.00,4,Thunderstorm,171
2013-7-21,83,74,64,65,61,57,91,71,42,30.16,30.11,30.05,10,10,10,13,4,20,0.00,5,Thunderstorm,170
2013-7-22,88,76,65,66,62,57,89,66,40,30.17,30.13,30.08,10,10,10,16,7,23,0.00,2,Thunderstorm,204
2013-7-23,90,78,68,65,62,57,87,64,35,30.18,30.15,30.08,10,10,10,15,7,20,0.00,2,,209
2013-7-24,91,78,67,68,62,57,81,64,36,30.21,30.16,30.13,10,10,2,13,4,,0.15,1,Thunderstorm,210
2013-7-25,91,75,59,62,57,48,94,64,24,30.28,30.23,30.18,10,10,10,10,3,,0.00,0,,170
2013-7-26,90,78,67,66,59,55,85,62,34,30.28,30.25,30.23,10,10,10,14,6,,0.00,0,Thunderstorm,232
2013-7-27,87,76,66,65,60,52,90,66,33,30.31,30.25,30.16,10,10,10,13,4,21,0.00,3,Thunderstorm,44
2013-7-28,90,77,64,64,60,56,82,62,32,30.20,30.13,30.06,10,10,10,15,10,20,0.00,3,Thunderstorm,228
2013-7-29,87,78,69,65,60,54,81,57,35,30.25,30.18,30.12,10,10,10,16,7,21,0.00,3,Thunderstorm,232
2013-7-30,94,82,71,63,61,55,70,56,28,30.30,30.26,30.21,10,10,10,18,8,26,0.00,1,Thunderstorm,240
2013-7-31,95,80,65,61,57,53,75,48,24,30.32,30.27,30.20,10,10,10,15,7,24,0.00,0,Thunderstorm,144